createdAt,value
2018-10-01T00:00:10.009Z,12.9
2018-10-01T00:10:09.174Z,13
2018-10-01T00:20:08.397Z,13
2018-10-01T00:30:07.622Z,12.9
2018-10-01T00:40:06.844Z,12.9
2018-10-01T00:50:06.060Z,12.8
2018-10-01T01:00:05.274Z,12.9
2018-10-01T01:10:04.500Z,12.9
2018-10-01T01:20:03.715Z,12.9
2018-10-01T01:30:02.946Z,12.9
2018-10-01T01:40:02.163Z,12.9
2018-10-01T01:50:01.375Z,13.1
2018-10-01T02:00:00.599Z,13.1
2018-10-01T02:09:59.818Z,13.2
2018-10-01T02:19:59.034Z,13.3
2018-10-01T02:29:58.254Z,13.3
2018-10-01T02:39:57.491Z,13.3
2018-10-01T02:49:56.699Z,13.3
2018-10-01T02:59:55.919Z,13.4
2018-10-01T03:09:55.136Z,13.4
2018-10-01T03:19:54.350Z,13.4
2018-10-01T03:29:53.575Z,13.4
2018-10-01T03:39:52.831Z,13.5
2018-10-01T03:49:52.009Z,13.5
2018-10-01T03:59:51.234Z,13.5
2018-10-01T04:09:50.453Z,13.6
2018-10-01T04:19:49.671Z,13.5
2018-10-01T04:29:48.895Z,13.5
2018-10-01T04:39:48.110Z,12.3
2018-10-01T04:49:47.334Z,11.8
2018-10-01T04:59:46.545Z,11.8
2018-10-01T05:09:45.767Z,11.8
2018-10-01T05:19:44.986Z,11.8
2018-10-01T05:29:44.207Z,11.9
2018-10-01T05:39:43.431Z,12
2018-10-01T05:49:42.640Z,12.2
2018-10-01T05:59:41.860Z,12.6
2018-10-01T06:09:41.081Z,13
2018-10-01T06:19:40.310Z,13.6
2018-10-01T06:29:39.524Z,13.9
2018-10-01T06:39:38.745Z,14.6
2018-10-01T06:49:37.964Z,14.8
2018-10-01T06:59:37.188Z,15.1
2018-10-01T07:09:36.400Z,15.4
2018-10-01T07:19:35.620Z,15.5
2018-10-01T07:29:34.838Z,15.3
2018-10-01T07:39:34.063Z,15.8
2018-10-01T07:49:33.279Z,16.9
2018-10-01T07:59:32.573Z,17.1
2018-10-01T08:09:31.780Z,17.3
2018-10-01T08:19:30.942Z,18.3
2018-10-01T08:29:30.230Z,20.8
2018-10-01T08:39:29.378Z,19.7
2018-10-01T08:49:28.601Z,19.3
2018-10-01T08:59:27.884Z,19.5
2018-10-01T09:09:27.039Z,18.8
2018-10-01T09:19:26.258Z,19
2018-10-01T09:29:25.569Z,18.3
2018-10-01T09:39:24.705Z,18
2018-10-01T09:49:23.921Z,17.9
2018-10-01T09:59:23.136Z,17.9
2018-10-01T10:09:22.361Z,17.7
2018-10-01T10:19:21.585Z,18.1
2018-10-01T10:29:20.801Z,18.6
2018-10-01T10:39:20.038Z,18.8
2018-10-01T10:49:19.239Z,18.9
2018-10-01T10:59:18.455Z,19
2018-10-01T11:09:17.675Z,19.6
2018-10-01T11:19:17.100Z,19.9
2018-10-01T11:29:16.114Z,20.1
2018-10-01T11:39:15.521Z,20
2018-10-01T11:49:14.555Z,19.8
2018-10-01T11:59:13.773Z,19.6
2018-10-01T12:09:13.108Z,19.4
2018-10-01T12:19:12.213Z,19.6
2018-10-01T12:29:11.488Z,19.4
2018-10-01T12:39:10.692Z,19.4
2018-10-01T12:49:09.878Z,19.5
2018-10-01T12:59:09.098Z,19.4
2018-10-01T13:09:08.313Z,19.1
2018-10-01T13:19:07.589Z,18.9
2018-10-01T13:29:06.752Z,18.6
2018-10-01T13:39:05.973Z,18.4
2018-10-01T13:49:05.197Z,18.3
2018-10-01T13:59:04.416Z,18.3
2018-10-01T14:09:03.632Z,18.1
2018-10-01T14:19:02.924Z,17.9
2018-10-01T14:29:02.075Z,17.9
2018-10-01T14:39:01.300Z,17.9
2018-10-01T14:49:00.514Z,17.8
2018-10-01T14:58:59.735Z,17.5
2018-10-01T15:08:58.954Z,17.4
2018-10-01T15:18:58.178Z,17.1
2018-10-01T15:28:57.390Z,16.9
2018-10-01T15:38:56.610Z,16.8
2018-10-01T15:48:55.834Z,16.5
2018-10-01T15:58:55.047Z,16.3
2018-10-01T16:08:54.278Z,16.1
2018-10-01T16:18:53.493Z,15.8
2018-10-01T16:28:52.709Z,15.7
2018-10-01T16:38:51.927Z,15.9
2018-10-01T16:48:51.148Z,15.9
2018-10-01T16:58:50.368Z,15.9
2018-10-01T17:08:49.591Z,15.9
2018-10-01T17:18:48.818Z,15.9
2018-10-01T17:28:48.035Z,15.8
2018-10-01T17:38:47.255Z,15.8
2018-10-01T17:48:46.472Z,15.7
2018-10-01T17:58:45.694Z,15.6
2018-10-01T18:08:44.920Z,15.5
2018-10-01T18:18:44.141Z,15.4
2018-10-01T18:28:43.360Z,15.4
2018-10-01T18:38:42.583Z,15.4
2018-10-01T18:48:41.804Z,15.4
2018-10-01T18:58:41.067Z,15.4
2018-10-01T19:08:40.248Z,15.5
2018-10-01T19:18:39.460Z,15.6
2018-10-01T19:28:38.689Z,15.6
2018-10-01T19:38:37.907Z,15.6
2018-10-01T19:48:37.126Z,15.7
2018-10-01T19:58:36.350Z,15.8
2018-10-01T20:08:35.573Z,15.8
2018-10-01T20:18:34.788Z,15.6
2018-10-01T20:28:34.313Z,15.6
2018-10-01T20:38:33.237Z,15.5
2018-10-01T20:48:32.449Z,15.4
2018-10-01T20:58:31.670Z,15.3
2018-10-01T21:08:30.955Z,15.3
2018-10-01T21:18:30.120Z,15.2
2018-10-01T21:28:29.338Z,15.2
2018-10-01T21:38:28.554Z,15.1
2018-10-01T21:48:27.771Z,15.1
2018-10-01T21:58:26.992Z,14.9
2018-10-01T22:08:26.211Z,14.8
2018-10-01T22:18:25.430Z,14.8
2018-10-01T22:28:24.655Z,14.8
2018-10-01T22:38:23.875Z,14.8
2018-10-01T22:48:23.094Z,14.7
2018-10-01T22:58:22.315Z,14.6
2018-10-01T23:08:21.537Z,14.5
2018-10-01T23:18:20.753Z,14.5
2018-10-01T23:28:19.970Z,14.4
2018-10-01T23:38:19.224Z,14.3
2018-10-01T23:48:18.409Z,14.3
2018-10-01T23:58:17.634Z,14.2
